sensor_id;sensor_type;location;lat;lon;timestamp;pressure;altitude;pressure_sealevel;temperature;humidity
67013;BME280;53926;47.406;19.188;2022-07-06T00:01:42;100162.25;;;17.86;98.76
67013;BME280;53926;47.406;19.188;2022-07-06T00:04:09;100158.53;;;17.77;98.64
67013;BME280;53926;47.406;19.188;2022-07-06T00:06:36;100156.47;;;17.79;98.86
67013;BME280;53926;47.406;19.188;2022-07-06T00:09:04;100166.75;;;17.81;99.42
67013;BME280;53926;47.406;19.188;2022-07-06T00:11:31;100172.06;;;17.91;98.17
67013;BME280;53926;47.406;19.188;2022-07-06T00:13:58;100169.59;;;17.69;99.77
67013;BME280;53926;47.406;19.188;2022-07-06T00:16:25;100169.59;;;17.69;99.13
67013;BME280;53926;47.406;19.188;2022-07-06T00:18:52;100166.69;;;17.76;99.06
67013;BME280;53926;47.406;19.188;2022-07-06T00:21:18;100163.53;;;17.74;99.26
67013;BME280;53926;47.406;19.188;2022-07-06T00:23:45;100170.34;;;17.64;99.32
67013;BME280;53926;47.406;19.188;2022-07-06T00:26:12;100173.25;;;17.68;98.71
67013;BME280;53926;47.406;19.188;2022-07-06T00:28:39;100176.16;;;17.66;99.07
67013;BME280;53926;47.406;19.188;2022-07-06T00:31:05;100171.66;;;17.57;99.43
67013;BME280;53926;47.406;19.188;2022-07-06T00:33:32;100177.91;;;17.45;100.00
67013;BME280;53926;47.406;19.188;2022-07-06T00:35:59;100176.41;;;17.65;98.94
67013;BME280;53926;47.406;19.188;2022-07-06T00:38:25;100188.47;;;17.56;99.29
67013;BME280;53926;47.406;19.188;2022-07-06T00:40:52;100180.31;;;17.57;100.00
67013;BME280;53926;47.406;19.188;2022-07-06T00:43:19;100177.72;;;17.62;98.74
67013;BME280;53926;47.406;19.188;2022-07-06T00:45:46;100181.91;;;17.58;99.50
67013;BME280;53926;47.406;19.188;2022-07-06T00:48:12;100182.69;;;17.54;99.87
67013;BME280;53926;47.406;19.188;2022-07-06T00:50:39;100188.44;;;17.45;100.00
67013;BME280;53926;47.406;19.188;2022-07-06T00:53:06;100185.50;;;17.37;100.00
67013;BME280;53926;47.406;19.188;2022-07-06T00:55:37;100189.75;;;17.43;100.00
67013;BME280;53926;47.406;19.188;2022-07-06T00:58:08;100178.44;;;17.42;100.00
67013;BME280;53926;47.406;19.188;2022-07-06T01:00:36;100172.66;;;17.45;100.00
67013;BME280;53926;47.406;19.188;2022-07-06T01:03:03;100167.72;;;17.64;98.58
67013;BME280;53926;47.406;19.188;2022-07-06T01:05:29;100160.53;;;17.44;99.62
67013;BME280;53926;47.406;19.188;2022-07-06T01:07:56;100155.00;;;17.46;99.68
67013;BME280;53926;47.406;19.188;2022-07-06T01:10:26;100156.28;;;17.33;100.00
67013;BME280;53926;47.406;19.188;2022-07-06T01:12:53;100158.91;;;17.33;100.00
67013;BME280;53926;47.406;19.188;2022-07-06T01:15:25;100142.06;;;17.34;100.00
67013;BME280;53926;47.406;19.188;2022-07-06T01:17:51;100142.88;;;17.40;99.74
67013;BME280;53926;47.406;19.188;2022-07-06T01:20:21;100147.62;;;17.43;99.51
67013;BME280;53926;47.406;19.188;2022-07-06T01:22:51;100145.78;;;17.43;99.33
67013;BME280;53926;47.406;19.188;2022-07-06T01:25:19;100147.12;;;17.46;99.17
67013;BME280;53926;47.406;19.188;2022-07-06T01:27:49;100147.62;;;17.48;98.93
67013;BME280;53926;47.406;19.188;2022-07-06T01:30:18;100146.81;;;17.37;99.60
67013;BME280;53926;47.406;19.188;2022-07-06T01:32:45;100136.03;;;17.39;99.30
67013;BME280;53926;47.406;19.188;2022-07-06T01:35:14;100145.44;;;17.24;100.00
67013;BME280;53926;47.406;19.188;2022-07-06T01:37:42;100140.25;;;17.40;99.57
67013;BME280;53926;47.406;19.188;2022-07-06T01:40:11;100137.28;;;17.21;100.00
67013;BME280;53926;47.406;19.188;2022-07-06T01:42:39;100138.91;;;17.37;99.89
67013;BME280;53926;47.406;19.188;2022-07-06T01:45:09;100132.53;;;17.23;100.00
67013;BME280;53926;47.406;19.188;2022-07-06T01:47:36;100137.53;;;17.24;100.00
67013;BME280;53926;47.406;19.188;2022-07-06T01:50:05;100141.84;;;17.41;99.48
67013;BME280;53926;47.406;19.188;2022-07-06T01:52:32;100140.94;;;17.25;99.88
67013;BME280;53926;47.406;19.188;2022-07-06T01:55:02;100148.63;;;17.31;100.00
67013;BME280;53926;47.406;19.188;2022-07-06T01:57:28;100150.47;;;17.31;99.79
67013;BME280;53926;47.406;19.188;2022-07-06T01:59:55;100153.16;;;17.41;98.75
67013;BME280;53926;47.406;19.188;2022-07-06T02:02:24;100149.63;;;17.20;99.95
67013;BME280;53926;47.406;19.188;2022-07-06T02:04:50;100152.81;;;17.27;99.79
67013;BME280;53926;47.406;19.188;2022-07-06T02:07:19;100158.09;;;17.32;99.06
67013;BME280;53926;47.406;19.188;2022-07-06T02:09:49;100153.91;;;17.31;99.00
67013;BME280;53926;47.406;19.188;2022-07-06T02:12:17;100148.31;;;17.18;100.00
67013;BME280;53926;47.406;19.188;2022-07-06T02:14:44;100152.81;;;17.22;99.91
67013;BME280;53926;47.406;19.188;2022-07-06T02:17:11;100155.72;;;17.26;99.24
67013;BME280;53926;47.406;19.188;2022-07-06T02:19:43;100160.62;;;17.12;99.74
67013;BME280;53926;47.406;19.188;2022-07-06T02:22:09;100167.06;;;17.37;98.44
67013;BME280;53926;47.406;19.188;2022-07-06T02:24:36;100167.00;;;17.21;99.41
67013;BME280;53926;47.406;19.188;2022-07-06T02:27:03;100176.25;;;17.34;98.48
67013;BME280;53926;47.406;19.188;2022-07-06T02:29:34;100173.88;;;17.27;98.52
67013;BME280;53926;47.406;19.188;2022-07-06T02:32:01;100174.09;;;17.21;98.79
67013;BME280;53926;47.406;19.188;2022-07-06T02:34:28;100169.56;;;17.11;99.03
67013;BME280;53926;47.406;19.188;2022-07-06T02:36:57;100179.66;;;17.29;98.33
67013;BME280;53926;47.406;19.188;2022-07-06T02:39:23;100172.59;;;17.35;97.84
67013;BME280;53926;47.406;19.188;2022-07-06T02:41:52;100177.00;;;17.19;98.67
67013;BME280;53926;47.406;19.188;2022-07-06T02:44:24;100182.19;;;17.14;98.85
67013;BME280;53926;47.406;19.188;2022-07-06T02:46:50;100172.00;;;17.23;98.39
67013;BME280;53926;47.406;19.188;2022-07-06T02:49:17;100177.25;;;17.23;97.97
67013;BME280;53926;47.406;19.188;2022-07-06T02:51:44;100183.53;;;17.11;98.75
67013;BME280;53926;47.406;19.188;2022-07-06T02:54:18;100186.75;;;17.24;98.14
67013;BME280;53926;47.406;19.188;2022-07-06T02:56:45;100185.66;;;17.20;98.33
67013;BME280;53926;47.406;19.188;2022-07-06T02:59:17;100193.78;;;17.13;98.40
67013;BME280;53926;47.406;19.188;2022-07-06T03:01:48;100184.56;;;17.15;98.24
67013;BME280;53926;47.406;19.188;2022-07-06T03:04:15;100190.94;;;17.20;98.33
67013;BME280;53926;47.406;19.188;2022-07-06T03:06:42;100185.94;;;17.23;97.91
67013;BME280;53926;47.406;19.188;2022-07-06T03:09:08;100200.19;;;17.27;97.98
67013;BME280;53926;47.406;19.188;2022-07-06T03:11:37;100199.59;;;17.20;98.01
67013;BME280;53926;47.406;19.188;2022-07-06T03:14:05;100203.84;;;17.21;97.63
67013;BME280;53926;47.406;19.188;2022-07-06T03:16:40;100203.84;;;17.21;98.23
67013;BME280;53926;47.406;19.188;2022-07-06T03:19:15;100213.06;;;17.24;98.08
67013;BME280;53926;47.406;19.188;2022-07-06T03:21:42;100206.44;;;17.16;98.54
67013;BME280;53926;47.406;19.188;2022-07-06T03:24:11;100213.56;;;17.21;97.99
67013;BME280;53926;47.406;19.188;2022-07-06T03:26:40;100209.13;;;17.26;97.87
67013;BME280;53926;47.406;19.188;2022-07-06T03:29:06;100217.00;;;17.26;97.96
67013;BME280;53926;47.406;19.188;2022-07-06T03:31:33;100216.72;;;17.23;98.62
67013;BME280;53926;47.406;19.188;2022-07-06T03:34:01;100214.94;;;17.28;98.46
67013;BME280;53926;47.406;19.188;2022-07-06T03:36:30;100217.16;;;17.47;97.45
67013;BME280;53926;47.406;19.188;2022-07-06T03:39:07;100224.19;;;17.36;97.99
67013;BME280;53926;47.406;19.188;2022-07-06T03:41:34;100229.75;;;17.45;97.54
67013;BME280;53926;47.406;19.188;2022-07-06T03:44:00;100235.41;;;17.64;96.00
67013;BME280;53926;47.406;19.188;2022-07-06T03:46:28;100233.81;;;17.68;95.60
67013;BME280;53926;47.406;19.188;2022-07-06T03:48:57;100231.84;;;17.91;94.73
67013;BME280;53926;47.406;19.188;2022-07-06T03:51:24;100233.91;;;18.77;91.57
67013;BME280;53926;47.406;19.188;2022-07-06T03:53:51;100232.16;;;19.74;85.45
67013;BME280;53926;47.406;19.188;2022-07-06T03:56:17;100234.94;;;19.23;86.40
67013;BME280;53926;47.406;19.188;2022-07-06T03:59:01;100234.44;;;18.85;88.39
67013;BME280;53926;47.406;19.188;2022-07-06T04:01:29;100227.56;;;18.73;89.18
67013;BME280;53926;47.406;19.188;2022-07-06T04:03:56;100224.66;;;18.96;88.79
67013;BME280;53926;47.406;19.188;2022-07-06T04:06:23;100227.22;;;19.52;85.20
67013;BME280;53926;47.406;19.188;2022-07-06T04:08:51;100217.56;;;20.42;80.98
67013;BME280;53926;47.406;19.188;2022-07-06T04:11:17;100233.72;;;20.80;78.50
67013;BME280;53926;47.406;19.188;2022-07-06T04:13:44;100230.69;;;21.94;74.44
67013;BME280;53926;47.406;19.188;2022-07-06T04:16:11;100235.56;;;21.38;75.10
67013;BME280;53926;47.406;19.188;2022-07-06T04:18:37;100224.25;;;22.00;73.07
67013;BME280;53926;47.406;19.188;2022-07-06T04:21:04;100228.69;;;22.24;70.77
67013;BME280;53926;47.406;19.188;2022-07-06T04:23:31;100227.41;;;22.59;70.51
67013;BME280;53926;47.406;19.188;2022-07-06T04:26:00;100231.62;;;21.84;72.37
67013;BME280;53926;47.406;19.188;2022-07-06T04:28:29;100222.50;;;22.99;68.16
67013;BME280;53926;47.406;19.188;2022-07-06T04:30:56;100219.75;;;22.91;68.13
67013;BME280;53926;47.406;19.188;2022-07-06T04:33:22;100214.47;;;22.72;68.55
67013;BME280;53926;47.406;19.188;2022-07-06T04:35:49;100211.50;;;23.06;66.59
67013;BME280;53926;47.406;19.188;2022-07-06T04:38:16;100210.44;;;23.90;64.65
67013;BME280;53926;47.406;19.188;2022-07-06T04:40:43;100210.31;;;24.32;62.71
67013;BME280;53926;47.406;19.188;2022-07-06T04:43:12;100227.16;;;22.75;67.49
67013;BME280;53926;47.406;19.188;2022-07-06T04:45:39;100213.66;;;24.83;61.18
67013;BME280;53926;47.406;19.188;2022-07-06T04:48:06;100215.72;;;24.95;60.38
67013;BME280;53926;47.406;19.188;2022-07-06T04:50:34;100222.72;;;24.82;61.10
67013;BME280;53926;47.406;19.188;2022-07-06T04:53:06;100224.66;;;24.08;63.97
67013;BME280;53926;47.406;19.188;2022-07-06T04:55:33;100220.31;;;24.49;61.05
67013;BME280;53926;47.406;19.188;2022-07-06T04:57:59;100215.81;;;25.12;58.84
67013;BME280;53926;47.406;19.188;2022-07-06T05:00:26;100222.84;;;26.23;55.98
67013;BME280;53926;47.406;19.188;2022-07-06T05:02:53;100224.84;;;24.71;59.78
67013;BME280;53926;47.406;19.188;2022-07-06T05:05:20;100218.53;;;24.90;60.10
67013;BME280;53926;47.406;19.188;2022-07-06T05:07:46;100217.34;;;24.73;59.18
67013;BME280;53926;47.406;19.188;2022-07-06T05:10:13;100226.38;;;25.84;56.65
67013;BME280;53926;47.406;19.188;2022-07-06T05:12:40;100227.84;;;25.99;56.44
67013;BME280;53926;47.406;19.188;2022-07-06T05:15:07;100232.00;;;25.65;56.95
67013;BME280;53926;47.406;19.188;2022-07-06T05:17:34;100225.22;;;25.50;57.60
67013;BME280;53926;47.406;19.188;2022-07-06T05:20:01;100235.38;;;26.05;56.12
67013;BME280;53926;47.406;19.188;2022-07-06T05:22:27;100220.56;;;27.85;51.78
67013;BME280;53926;47.406;19.188;2022-07-06T05:24:54;100231.94;;;26.31;54.82
67013;BME280;53926;47.406;19.188;2022-07-06T05:27:21;100239.28;;;26.61;54.00
67013;BME280;53926;47.406;19.188;2022-07-06T05:29:47;100235.47;;;25.74;56.48
67013;BME280;53926;47.406;19.188;2022-07-06T05:32:14;100238.31;;;27.30;51.74
67013;BME280;53926;47.406;19.188;2022-07-06T05:34:41;100253.53;;;25.95;55.48
67013;BME280;53926;47.406;19.188;2022-07-06T05:37:07;100261.72;;;25.41;57.92
67013;BME280;53926;47.406;19.188;2022-07-06T05:39:34;100266.47;;;26.28;55.64
67013;BME280;53926;47.406;19.188;2022-07-06T05:42:00;100259.66;;;28.41;49.73
67013;BME280;53926;47.406;19.188;2022-07-06T05:44:27;100273.09;;;27.90;50.26
67013;BME280;53926;47.406;19.188;2022-07-06T05:46:54;100274.34;;;25.26;57.70
67013;BME280;53926;47.406;19.188;2022-07-06T05:49:41;100272.28;;;27.89;51.94
67013;BME280;53926;47.406;19.188;2022-07-06T05:52:25;100278.56;;;28.02;51.14
67013;BME280;53926;47.406;19.188;2022-07-06T05:54:52;100281.09;;;30.63;45.11
67013;BME280;53926;47.406;19.188;2022-07-06T05:57:19;100269.16;;;29.54;45.56
67013;BME280;53926;47.406;19.188;2022-07-06T05:59:45;100272.84;;;28.46;48.15
67013;BME280;53926;47.406;19.188;2022-07-06T06:02:12;100285.59;;;29.90;46.11
67013;BME280;53926;47.406;19.188;2022-07-06T06:04:39;100286.72;;;29.27;45.58
67013;BME280;53926;47.406;19.188;2022-07-06T06:07:05;100281.53;;;29.10;48.85
67013;BME280;53926;47.406;19.188;2022-07-06T06:09:32;100285.66;;;27.29;50.91
67013;BME280;53926;47.406;19.188;2022-07-06T06:11:59;100282.28;;;27.50;50.17
67013;BME280;53926;47.406;19.188;2022-07-06T06:14:25;100288.44;;;26.16;55.07
67013;BME280;53926;47.406;19.188;2022-07-06T06:16:52;100286.66;;;29.15;48.20
67013;BME280;53926;47.406;19.188;2022-07-06T06:19:19;100293.19;;;27.36;50.67
67013;BME280;53926;47.406;19.188;2022-07-06T06:21:45;100292.34;;;30.53;44.57
67013;BME280;53926;47.406;19.188;2022-07-06T06:24:12;100297.97;;;30.47;43.65
67013;BME280;53926;47.406;19.188;2022-07-06T06:26:39;100300.91;;;30.30;45.84
67013;BME280;53926;47.406;19.188;2022-07-06T06:29:05;100293.91;;;31.30;42.10
67013;BME280;53926;47.406;19.188;2022-07-06T06:31:32;100303.72;;;29.43;46.50
67013;BME280;53926;47.406;19.188;2022-07-06T06:34:06;100300.47;;;29.38;45.35
67013;BME280;53926;47.406;19.188;2022-07-06T06:36:33;100303.00;;;30.08;43.50
67013;BME280;53926;47.406;19.188;2022-07-06T06:38:59;100311.53;;;31.43;40.34
67013;BME280;53926;47.406;19.188;2022-07-06T06:41:26;100318.87;;;30.01;44.33
67013;BME280;53926;47.406;19.188;2022-07-06T06:43:53;100319.16;;;31.41;40.81
67013;BME280;53926;47.406;19.188;2022-07-06T06:46:19;100318.13;;;28.17;47.71
67013;BME280;53926;47.406;19.188;2022-07-06T06:48:46;100313.88;;;29.50;47.07
67013;BME280;53926;47.406;19.188;2022-07-06T06:51:13;100315.75;;;30.96;42.60
67013;BME280;53926;47.406;19.188;2022-07-06T06:53:39;100316.56;;;28.92;47.32
67013;BME280;53926;47.406;19.188;2022-07-06T06:56:07;100325.63;;;27.64;51.10
67013;BME280;53926;47.406;19.188;2022-07-06T06:58:35;100317.12;;;29.81;43.88
67013;BME280;53926;47.406;19.188;2022-07-06T07:01:21;100323.59;;;30.73;42.93
67013;BME280;53926;47.406;19.188;2022-07-06T07:03:49;100326.78;;;30.63;42.35
67013;BME280;53926;47.406;19.188;2022-07-06T07:06:16;100327.09;;;32.60;38.23
67013;BME280;53926;47.406;19.188;2022-07-06T07:08:43;100325.78;;;29.16;45.21
67013;BME280;53926;47.406;19.188;2022-07-06T07:11:09;100326.41;;;29.00;46.83
67013;BME280;53926;47.406;19.188;2022-07-06T07:13:36;100333.00;;;28.69;46.79
67013;BME280;53926;47.406;19.188;2022-07-06T07:16:03;100335.66;;;31.71;41.55
67013;BME280;53926;47.406;19.188;2022-07-06T07:18:30;100336.41;;;31.08;41.66
67013;BME280;53926;47.406;19.188;2022-07-06T07:20:58;100345.13;;;32.36;40.81
67013;BME280;53926;47.406;19.188;2022-07-06T07:23:25;100333.66;;;29.46;45.14
67013;BME280;53926;47.406;19.188;2022-07-06T07:25:52;100325.31;;;31.58;39.97
67013;BME280;53926;47.406;19.188;2022-07-06T07:28:19;100346.47;;;28.94;46.44
67013;BME280;53926;47.406;19.188;2022-07-06T07:30:46;100336.34;;;28.66;45.98
67013;BME280;53926;47.406;19.188;2022-07-06T07:33:13;100338.59;;;29.43;44.90
67013;BME280;53926;47.406;19.188;2022-07-06T07:35:40;100346.41;;;31.08;44.18
67013;BME280;53926;47.406;19.188;2022-07-06T07:38:06;100335.75;;;30.83;42.92
67013;BME280;53926;47.406;19.188;2022-07-06T07:40:33;100338.84;;;30.97;40.64
67013;BME280;53926;47.406;19.188;2022-07-06T07:43:01;100351.69;;;30.76;41.91
67013;BME280;53926;47.406;19.188;2022-07-06T07:45:28;100351.09;;;31.43;42.87
67013;BME280;53926;47.406;19.188;2022-07-06T07:47:55;100351.59;;;31.80;40.55
67013;BME280;53926;47.406;19.188;2022-07-06T07:50:22;100344.97;;;33.84;35.20
67013;BME280;53926;47.406;19.188;2022-07-06T07:52:49;100342.66;;;32.90;38.17
67013;BME280;53926;47.406;19.188;2022-07-06T07:55:16;100356.38;;;31.39;40.95
67013;BME280;53926;47.406;19.188;2022-07-06T07:58:03;100357.97;;;31.24;40.31
67013;BME280;53926;47.406;19.188;2022-07-06T08:00:29;100348.69;;;32.05;39.30
67013;BME280;53926;47.406;19.188;2022-07-06T08:02:56;100347.03;;;31.65;39.68
67013;BME280;53926;47.406;19.188;2022-07-06T08:05:22;100357.75;;;31.97;39.49
67013;BME280;53926;47.406;19.188;2022-07-06T08:07:49;100358.06;;;31.60;39.31
67013;BME280;53926;47.406;19.188;2022-07-06T08:10:16;100355.91;;;32.01;38.25
67013;BME280;53926;47.406;19.188;2022-07-06T08:12:42;100361.16;;;32.49;37.60
67013;BME280;53926;47.406;19.188;2022-07-06T08:15:11;100352.34;;;32.32;36.81
67013;BME280;53926;47.406;19.188;2022-07-06T08:17:38;100348.69;;;32.79;38.74
67013;BME280;53926;47.406;19.188;2022-07-06T08:20:06;100350.56;;;32.20;40.48
67013;BME280;53926;47.406;19.188;2022-07-06T08:22:35;100349.31;;;32.34;37.56
67013;BME280;53926;47.406;19.188;2022-07-06T08:25:02;100347.66;;;29.88;42.43
67013;BME280;53926;47.406;19.188;2022-07-06T08:27:29;100350.44;;;30.85;43.59
67013;BME280;53926;47.406;19.188;2022-07-06T08:29:56;100343.59;;;33.21;38.36
67013;BME280;53926;47.406;19.188;2022-07-06T08:32:23;100350.59;;;31.21;39.84
67013;BME280;53926;47.406;19.188;2022-07-06T08:35:10;100352.28;;;30.41;41.69
67013;BME280;53926;47.406;19.188;2022-07-06T08:37:37;100363.78;;;31.74;40.71
67013;BME280;53926;47.406;19.188;2022-07-06T08:40:04;100363.16;;;31.33;41.54
67013;BME280;53926;47.406;19.188;2022-07-06T08:42:33;100364.19;;;31.28;40.13
67013;BME280;53926;47.406;19.188;2022-07-06T08:45:04;100357.69;;;32.29;38.75
67013;BME280;53926;47.406;19.188;2022-07-06T08:47:32;100366.97;;;30.88;40.31
67013;BME280;53926;47.406;19.188;2022-07-06T08:50:03;100363.84;;;30.57;41.42
67013;BME280;53926;47.406;19.188;2022-07-06T08:52:30;100363.47;;;27.84;49.34
67013;BME280;53926;47.406;19.188;2022-07-06T08:54:58;100367.56;;;28.41;46.12
67013;BME280;53926;47.406;19.188;2022-07-06T08:57:26;100364.28;;;28.35;46.76
67013;BME280;53926;47.406;19.188;2022-07-06T08:59:52;100364.66;;;26.92;50.67
67013;BME280;53926;47.406;19.188;2022-07-06T09:02:21;100359.75;;;27.11;48.66
67013;BME280;53926;47.406;19.188;2022-07-06T09:04:51;100364.12;;;28.11;46.03
67013;BME280;53926;47.406;19.188;2022-07-06T09:07:21;100357.81;;;29.70;41.32
67013;BME280;53926;47.406;19.188;2022-07-06T09:10:09;100356.94;;;29.91;41.81
67013;BME280;53926;47.406;19.188;2022-07-06T09:12:36;100347.97;;;30.80;40.20
67013;BME280;53926;47.406;19.188;2022-07-06T09:15:03;100350.78;;;31.96;38.74
67013;BME280;53926;47.406;19.188;2022-07-06T09:17:30;100349.41;;;30.62;41.67
67013;BME280;53926;47.406;19.188;2022-07-06T09:19:57;100350.72;;;30.68;38.38
67013;BME280;53926;47.406;19.188;2022-07-06T09:22:31;100355.81;;;30.85;38.03
67013;BME280;53926;47.406;19.188;2022-07-06T09:25:12;100348.34;;;29.85;40.38
67013;BME280;53926;47.406;19.188;2022-07-06T09:27:40;100345.06;;;29.79;40.93
67013;BME280;53926;47.406;19.188;2022-07-06T09:30:09;100357.38;;;30.05;38.42
67013;BME280;53926;47.406;19.188;2022-07-06T09:32:44;100350.00;;;28.01;42.37
67013;BME280;53926;47.406;19.188;2022-07-06T09:35:28;100349.41;;;29.01;42.02
67013;BME280;53926;47.406;19.188;2022-07-06T09:40:35;100346.41;;;29.49;41.69
67013;BME280;53926;47.406;19.188;2022-07-06T09:45:35;100343.72;;;28.69;42.42
67013;BME280;53926;47.406;19.188;2022-07-06T09:48:16;100342.88;;;30.91;40.34
67013;BME280;53926;47.406;19.188;2022-07-06T09:50:52;100355.87;;;31.33;37.80
67013;BME280;53926;47.406;19.188;2022-07-06T09:53:21;100354.19;;;29.29;39.33
67013;BME280;53926;47.406;19.188;2022-07-06T09:55:50;100355.34;;;29.77;40.91
67013;BME280;53926;47.406;19.188;2022-07-06T09:58:18;100350.25;;;28.81;41.09
67013;BME280;53926;47.406;19.188;2022-07-06T10:01:05;100356.69;;;29.34;42.20
67013;BME280;53926;47.406;19.188;2022-07-06T10:03:32;100357.09;;;30.23;38.61
67013;BME280;53926;47.406;19.188;2022-07-06T10:05:59;100351.66;;;29.33;40.72
67013;BME280;53926;47.406;19.188;2022-07-06T10:08:27;100358.56;;;28.67;43.41
67013;BME280;53926;47.406;19.188;2022-07-06T10:10:55;100353.50;;;28.02;43.35
67013;BME280;53926;47.406;19.188;2022-07-06T10:13:24;100360.78;;;27.84;45.73
67013;BME280;53926;47.406;19.188;2022-07-06T10:15:53;100358.19;;;28.89;43.73
67013;BME280;53926;47.406;19.188;2022-07-06T10:18:21;100352.69;;;29.65;42.49
67013;BME280;53926;47.406;19.188;2022-07-06T10:20:48;100343.94;;;30.58;39.04
67013;BME280;53926;47.406;19.188;2022-07-06T10:23:19;100341.72;;;31.05;36.59
67013;BME280;53926;47.406;19.188;2022-07-06T10:25:51;100345.97;;;29.47;39.36
67013;BME280;53926;47.406;19.188;2022-07-06T10:28:19;100347.09;;;29.83;38.34
67013;BME280;53926;47.406;19.188;2022-07-06T10:30:49;100350.59;;;30.48;36.47
67013;BME280;53926;47.406;19.188;2022-07-06T10:33:17;100346.91;;;30.41;37.74
67013;BME280;53926;47.406;19.188;2022-07-06T10:35:47;100350.75;;;30.56;38.93
67013;BME280;53926;47.406;19.188;2022-07-06T10:38:14;100347.28;;;31.28;36.33
67013;BME280;53926;47.406;19.188;2022-07-06T10:40:41;100342.94;;;31.07;35.49
67013;BME280;53926;47.406;19.188;2022-07-06T10:43:44;100341.41;;;31.54;35.59
67013;BME280;53926;47.406;19.188;2022-07-06T10:46:15;100335.66;;;31.08;35.45
67013;BME280;53926;47.406;19.188;2022-07-06T10:48:44;100345.22;;;30.36;37.44
67013;BME280;53926;47.406;19.188;2022-07-06T10:51:25;100339.00;;;30.07;35.32
67013;BME280;53926;47.406;19.188;2022-07-06T10:54:00;100341.25;;;30.58;36.38
67013;BME280;53926;47.406;19.188;2022-07-06T10:59:09;100344.16;;;30.81;35.60
67013;BME280;53926;47.406;19.188;2022-07-06T11:01:38;100348.41;;;31.27;35.26
67013;BME280;53926;47.406;19.188;2022-07-06T11:04:14;100335.72;;;30.67;35.72
67013;BME280;53926;47.406;19.188;2022-07-06T11:06:41;100340.88;;;30.31;36.43
67013;BME280;53926;47.406;19.188;2022-07-06T11:09:10;100342.16;;;29.85;37.05
67013;BME280;53926;47.406;19.188;2022-07-06T11:11:41;100348.84;;;28.62;37.49
67013;BME280;53926;47.406;19.188;2022-07-06T11:19:27;100348.66;;;30.49;33.05
67013;BME280;53926;47.406;19.188;2022-07-06T11:21:56;100341.53;;;30.97;32.44
67013;BME280;53926;47.406;19.188;2022-07-06T11:24:37;100345.56;;;30.47;31.01
67013;BME280;53926;47.406;19.188;2022-07-06T11:27:05;100331.66;;;30.73;34.02
67013;BME280;53926;47.406;19.188;2022-07-06T11:29:34;100334.19;;;31.10;30.82
67013;BME280;53926;47.406;19.188;2022-07-06T11:32:03;100336.00;;;31.22;31.08
67013;BME280;53926;47.406;19.188;2022-07-06T11:34:33;100338.25;;;31.20;29.32
67013;BME280;53926;47.406;19.188;2022-07-06T11:37:03;100340.41;;;31.14;30.31
67013;BME280;53926;47.406;19.188;2022-07-06T11:39:31;100339.78;;;31.05;30.32
67013;BME280;53926;47.406;19.188;2022-07-06T11:41:59;100340.94;;;31.04;30.04
67013;BME280;53926;47.406;19.188;2022-07-06T11:44:27;100332.44;;;30.74;29.93
67013;BME280;53926;47.406;19.188;2022-07-06T11:46:53;100338.87;;;31.13;31.35
67013;BME280;53926;47.406;19.188;2022-07-06T11:49:25;100328.03;;;31.26;30.74
67013;BME280;53926;47.406;19.188;2022-07-06T11:51:52;100327.84;;;32.02;28.95
67013;BME280;53926;47.406;19.188;2022-07-06T11:54:20;100345.28;;;31.25;29.53
67013;BME280;53926;47.406;19.188;2022-07-06T11:56:57;100339.03;;;31.05;29.39
67013;BME280;53926;47.406;19.188;2022-07-06T12:02:09;100323.38;;;29.60;30.00
67013;BME280;53926;47.406;19.188;2022-07-06T12:04:45;100328.63;;;30.06;30.59
67013;BME280;53926;47.406;19.188;2022-07-06T12:07:14;100331.38;;;29.23;30.58
67013;BME280;53926;47.406;19.188;2022-07-06T12:09:44;100332.03;;;28.53;30.68
67013;BME280;53926;47.406;19.188;2022-07-06T12:12:12;100330.97;;;29.46;30.64
67013;BME280;53926;47.406;19.188;2022-07-06T12:14:40;100329.09;;;30.48;30.78
67013;BME280;53926;47.406;19.188;2022-07-06T12:17:09;100330.97;;;31.20;28.03
67013;BME280;53926;47.406;19.188;2022-07-06T12:19:37;100314.78;;;29.42;28.46
67013;BME280;53926;47.406;19.188;2022-07-06T12:22:05;100326.84;;;29.36;28.87
67013;BME280;53926;47.406;19.188;2022-07-06T12:24:33;100329.31;;;29.66;28.64
67013;BME280;53926;47.406;19.188;2022-07-06T12:27:11;100318.00;;;29.60;28.63
67013;BME280;53926;47.406;19.188;2022-07-06T12:29:38;100323.78;;;28.37;30.96
67013;BME280;53926;47.406;19.188;2022-07-06T12:32:05;100332.88;;;29.45;31.20
67013;BME280;53926;47.406;19.188;2022-07-06T12:34:32;100314.41;;;30.05;28.69
67013;BME280;53926;47.406;19.188;2022-07-06T12:37:09;100316.62;;;31.00;28.98
67013;BME280;53926;47.406;19.188;2022-07-06T12:39:43;100312.22;;;31.24;28.79
67013;BME280;53926;47.406;19.188;2022-07-06T12:42:10;100319.78;;;30.05;29.33
67013;BME280;53926;47.406;19.188;2022-07-06T12:44:47;100320.06;;;30.28;28.74
67013;BME280;53926;47.406;19.188;2022-07-06T12:47:23;100325.47;;;30.57;28.38
67013;BME280;53926;47.406;19.188;2022-07-06T12:50:06;100313.88;;;30.69;28.38
67013;BME280;53926;47.406;19.188;2022-07-06T12:52:33;100317.34;;;30.69;29.26
67013;BME280;53926;47.406;19.188;2022-07-06T12:55:00;100318.47;;;31.28;28.71
67013;BME280;53926;47.406;19.188;2022-07-06T12:57:44;100313.19;;;31.32;27.78
67013;BME280;53926;47.406;19.188;2022-07-06T13:00:12;100315.00;;;30.67;28.38
67013;BME280;53926;47.406;19.188;2022-07-06T13:02:38;100313.19;;;30.43;28.79
67013;BME280;53926;47.406;19.188;2022-07-06T13:05:26;100323.94;;;29.66;28.56